createdAt,value
2018-05-10T00:00:59.697Z,48.20
2018-05-10T00:02:00.785Z,48.20
2018-05-10T00:03:01.834Z,48.40
2018-05-10T00:04:02.959Z,48.40
2018-05-10T00:05:04.035Z,48.50
2018-05-10T00:06:05.095Z,48.40
2018-05-10T00:07:06.916Z,48.40
2018-05-10T00:08:07.987Z,48.30
2018-05-10T00:09:09.036Z,48.40
2018-05-10T00:10:10.114Z,48.40
2018-05-10T00:11:11.190Z,48.30
2018-05-10T00:12:12.271Z,48.40
2018-05-10T00:13:13.321Z,48.40
2018-05-10T00:14:14.386Z,48.40
2018-05-10T00:15:15.470Z,48.20
2018-05-10T00:16:16.543Z,48.60
2018-05-10T00:17:17.630Z,48.60
2018-05-10T00:18:18.715Z,48.80
2018-05-10T00:19:19.795Z,48.30
2018-05-10T00:20:20.870Z,48.50
2018-05-10T00:21:21.919Z,49.40
2018-05-10T00:22:22.995Z,48.70
2018-05-10T00:23:24.063Z,49.00
2018-05-10T00:24:25.185Z,49.00
2018-05-10T00:25:26.182Z,48.70
2018-05-10T00:26:27.228Z,48.50
2018-05-10T00:27:28.286Z,48.10
2018-05-10T00:28:29.398Z,48.10
2018-05-10T00:29:30.495Z,48.00
2018-05-10T00:30:32.311Z,48.00
2018-05-10T00:31:33.377Z,48.10
2018-05-10T00:32:34.442Z,48.30
2018-05-10T00:33:35.523Z,48.30
2018-05-10T00:34:36.591Z,48.40
2018-05-10T00:35:37.675Z,48.20
2018-05-10T00:36:38.738Z,48.10
2018-05-10T00:37:39.808Z,47.80
2018-05-10T00:38:41.607Z,47.90
2018-05-10T00:39:42.685Z,48.00
2018-05-10T00:40:44.501Z,48.10
2018-05-10T00:41:45.558Z,48.10
2018-05-10T00:42:46.647Z,48.50
2018-05-10T00:43:47.703Z,48.60
2018-05-10T00:44:48.755Z,48.50
2018-05-10T00:45:49.822Z,48.30
2018-05-10T00:46:50.887Z,48.90
2018-05-10T00:47:51.969Z,48.30
2018-05-10T00:48:53.775Z,48.60
2018-05-10T00:49:54.851Z,48.60
2018-05-10T00:50:55.912Z,48.50
2018-05-10T00:51:56.966Z,48.70
2018-05-10T00:52:58.081Z,48.80
2018-05-10T00:53:59.904Z,49.00
2018-05-10T00:55:01.708Z,48.70
2018-05-10T00:56:02.772Z,48.70
2018-05-10T00:57:04.562Z,49.40
2018-05-10T00:58:05.662Z,49.20
2018-05-10T00:59:07.486Z,49.40
2018-05-10T01:00:08.543Z,49.30
2018-05-10T01:01:10.341Z,49.20
2018-05-10T01:02:11.406Z,49.20
2018-05-10T01:03:12.482Z,49.20
2018-05-10T01:04:13.551Z,49.20
2018-05-10T01:05:14.634Z,49.20
2018-05-10T01:06:15.696Z,49.20
2018-05-10T01:07:16.762Z,49.10
2018-05-10T01:08:17.838Z,48.80
2018-05-10T01:09:18.907Z,49.20
2018-05-10T01:10:19.974Z,49.20
2018-05-10T01:11:21.766Z,49.20
2018-05-10T01:12:22.839Z,49.20
2018-05-10T01:13:23.929Z,49.20
2018-05-10T01:14:24.990Z,49.20
2018-05-10T01:15:26.085Z,49.20
2018-05-10T01:16:27.156Z,49.20
2018-05-10T01:17:28.235Z,49.20
2018-05-10T01:18:29.311Z,49.20
2018-05-10T01:19:30.382Z,49.20
2018-05-10T01:20:32.191Z,49.10
2018-05-10T01:21:33.247Z,49.20
2018-05-10T01:22:34.311Z,49.40
2018-05-10T01:23:36.102Z,49.50
2018-05-10T01:24:37.171Z,49.50
2018-05-10T01:25:38.235Z,49.70
2018-05-10T01:26:39.320Z,49.50
2018-05-10T01:27:40.371Z,50.70
2018-05-10T01:28:42.187Z,49.80
2018-05-10T01:29:43.242Z,49.80
2018-05-10T01:30:44.306Z,50.00
2018-05-10T01:31:45.374Z,50.00
2018-05-10T01:32:46.447Z,50.10
2018-05-10T01:33:47.518Z,50.40
2018-05-10T01:35:00.886Z,50.30
2018-05-10T01:36:13.081Z,50.40
2018-05-10T01:37:14.911Z,51.10
2018-05-10T01:38:15.973Z,50.40
2018-05-10T01:39:17.038Z,50.50
2018-05-10T01:40:18.110Z,50.50
2018-05-10T01:41:19.210Z,50.90
2018-05-10T01:42:20.270Z,50.70
2018-05-10T01:43:21.372Z,50.80
2018-05-10T01:44:22.439Z,50.70
2018-05-10T01:45:23.515Z,50.80
2018-05-10T01:46:24.634Z,51.50
2018-05-10T01:47:26.435Z,50.70
2018-05-10T01:48:27.496Z,50.80
2018-05-10T01:49:28.563Z,50.90
2018-05-10T01:50:29.618Z,50.80
2018-05-10T01:51:30.674Z,50.90
2018-05-10T01:52:31.750Z,50.70
2018-05-10T01:53:32.819Z,50.70
2018-05-10T01:54:33.895Z,50.70
2018-05-10T01:55:34.946Z,50.60
2018-05-10T01:56:36.738Z,50.60
2018-05-10T01:57:37.785Z,50.60
2018-05-10T01:58:38.839Z,50.50
2018-05-10T01:59:39.914Z,50.50
2018-05-10T02:00:40.987Z,50.50
2018-05-10T02:01:42.040Z,50.60
2018-05-10T02:02:43.112Z,50.60
2018-05-10T02:03:44.219Z,51.30
2018-05-10T02:04:45.315Z,50.50
2018-05-10T02:05:46.411Z,50.70
2018-05-10T02:06:47.515Z,50.80
2018-05-10T02:07:48.590Z,50.80
2018-05-10T02:08:49.670Z,50.70
2018-05-10T02:09:51.479Z,50.70
2018-05-10T02:10:52.563Z,50.80
2018-05-10T02:11:54.362Z,51.00
2018-05-10T02:12:55.407Z,51.00
2018-05-10T02:13:56.476Z,51.10
2018-05-10T02:14:57.543Z,51.10
2018-05-10T02:15:58.603Z,51.20
2018-05-10T02:16:59.680Z,51.10
2018-05-10T02:18:00.747Z,51.30
2018-05-10T02:19:01.827Z,51.10
2018-05-10T02:20:03.635Z,51.10
2018-05-10T02:21:04.715Z,51.20
2018-05-10T02:22:05.783Z,51.10
2018-05-10T02:23:06.842Z,51.00
2018-05-10T02:24:07.901Z,51.20
2018-05-10T02:25:09.723Z,51.50
2018-05-10T02:26:10.806Z,51.40
2018-05-10T02:27:11.867Z,51.50
2018-05-10T02:28:12.962Z,51.50
2018-05-10T02:29:14.034Z,51.70
2018-05-10T02:30:15.116Z,51.70
2018-05-10T02:31:16.183Z,51.60
2018-05-10T02:32:17.256Z,51.90
2018-05-10T02:33:18.329Z,52.10
2018-05-10T02:34:19.395Z,52.00
2018-05-10T02:35:20.482Z,52.10
2018-05-10T02:36:22.294Z,51.70
2018-05-10T02:37:23.358Z,51.80
2018-05-10T02:38:25.171Z,51.70
2018-05-10T02:39:26.242Z,51.70
2018-05-10T02:40:28.052Z,51.70
2018-05-10T02:41:29.114Z,51.60
2018-05-10T02:42:30.919Z,51.60
2018-05-10T02:43:31.984Z,51.70
2018-05-10T02:44:33.037Z,51.80
2018-05-10T02:45:34.844Z,52.00
2018-05-10T02:46:35.931Z,52.00
2018-05-10T02:47:36.995Z,52.00
2018-05-10T02:48:38.062Z,51.90
2018-05-10T02:49:39.886Z,52.00
2018-05-10T02:50:40.967Z,52.00
2018-05-10T02:51:42.023Z,51.90
2018-05-10T02:52:43.104Z,52.00
2018-05-10T02:53:44.150Z,52.00
2018-05-10T02:54:45.970Z,52.00
2018-05-10T02:55:47.058Z,51.90
2018-05-10T02:56:48.126Z,51.90
2018-05-10T02:57:49.183Z,52.20
2018-05-10T02:58:50.250Z,52.50
2018-05-10T02:59:51.295Z,52.30
2018-05-10T03:00:52.379Z,52.40
2018-05-10T03:01:53.422Z,52.40
2018-05-10T03:02:54.490Z,52.40
2018-05-10T03:03:55.552Z,52.60
2018-05-10T03:04:56.617Z,52.50
2018-05-10T03:05:58.439Z,52.40
2018-05-10T03:06:59.559Z,52.40
2018-05-10T03:08:00.625Z,52.20
2018-05-10T03:09:01.695Z,52.30
2018-05-10T03:10:02.776Z,52.40
2018-05-10T03:11:03.859Z,52.30
2018-05-10T03:12:04.915Z,52.30
2018-05-10T03:13:05.971Z,52.30
2018-05-10T03:14:07.026Z,52.30
2018-05-10T03:15:08.076Z,52.30
2018-05-10T03:16:09.159Z,52.40
2018-05-10T03:17:10.240Z,52.50
2018-05-10T03:18:12.057Z,52.80
2018-05-10T03:19:13.143Z,52.80
2018-05-10T03:20:14.200Z,52.70
2018-05-10T03:21:15.270Z,52.70
2018-05-10T03:22:17.087Z,52.80
2018-05-10T03:23:18.145Z,52.80
2018-05-10T03:24:19.215Z,52.80
2018-05-10T03:25:20.299Z,52.90
2018-05-10T03:26:21.362Z,52.90
2018-05-10T03:27:22.430Z,52.70
2018-05-10T03:28:24.222Z,52.80
2018-05-10T03:29:26.032Z,52.80
2018-05-10T03:30:27.075Z,52.80
2018-05-10T03:31:28.149Z,52.80
2018-05-10T03:32:29.239Z,52.80
2018-05-10T03:33:30.279Z,52.80
2018-05-10T03:34:31.327Z,52.80
2018-05-10T03:35:32.379Z,53.20
2018-05-10T03:36:33.459Z,53.40
2018-05-10T03:37:34.510Z,53.20
2018-05-10T03:38:35.570Z,52.90
2018-05-10T03:39:37.368Z,53.00
2018-05-10T03:40:38.425Z,53.00
2018-05-10T03:41:39.499Z,53.10
2018-05-10T03:42:40.571Z,53.10
2018-05-10T03:43:41.637Z,53.30
2018-05-10T03:44:42.675Z,53.00
2018-05-10T03:45:44.463Z,52.90
2018-05-10T03:46:45.536Z,52.80
2018-05-10T03:47:46.588Z,52.90
2018-05-10T03:48:47.639Z,53.10
2018-05-10T03:49:48.725Z,53.40
2018-05-10T03:50:49.774Z,53.40
2018-05-10T03:51:50.859Z,53.10
2018-05-10T03:52:51.915Z,53.10
2018-05-10T03:53:52.978Z,53.20
2018-05-10T03:54:54.039Z,53.10
2018-05-10T03:55:55.107Z,53.10
2018-05-10T03:56:56.186Z,53.30
2018-05-10T03:57:57.243Z,53.30
2018-05-10T03:58:58.308Z,53.50
2018-05-10T03:59:59.370Z,53.30
2018-05-10T04:01:00.442Z,53.40
2018-05-10T04:02:01.507Z,53.60
2018-05-10T04:04:50.058Z,53.80
2018-05-10T04:06:03.445Z,53.70
2018-05-10T04:07:16.807Z,54.00
2018-05-10T04:08:30.503Z,53.80
2018-05-10T04:09:43.819Z,53.70
2018-05-10T04:10:57.204Z,53.70
2018-05-10T04:11:59.002Z,53.70
2018-05-10T04:13:00.066Z,53.70
2018-05-10T04:14:01.894Z,53.80
2018-05-10T04:15:02.954Z,53.90
2018-05-10T04:16:04.773Z,53.70
2018-05-10T04:17:05.818Z,53.70
2018-05-10T04:18:06.878Z,53.70
2018-05-10T04:19:07.974Z,53.70
2018-05-10T04:20:09.018Z,53.70
2018-05-10T04:21:10.067Z,53.70
2018-05-10T04:22:11.129Z,53.80
2018-05-10T04:23:12.182Z,53.80
2018-05-10T04:24:13.242Z,53.90
2018-05-10T04:25:14.295Z,53.90
2018-05-10T04:26:15.362Z,53.70
2018-05-10T04:27:16.431Z,54.00
2018-05-10T04:28:17.500Z,53.80
2018-05-10T04:29:18.554Z,53.80
2018-05-10T04:30:19.614Z,54.40
2018-05-10T04:31:20.670Z,54.40
2018-05-10T04:32:21.733Z,54.20
2018-05-10T04:33:22.805Z,54.00
2018-05-10T04:34:23.855Z,53.80
2018-05-10T04:35:25.666Z,53.80
2018-05-10T04:36:26.718Z,53.90
2018-05-10T04:37:27.787Z,54.00
2018-05-10T04:38:29.576Z,53.90
2018-05-10T04:39:30.646Z,53.90
2018-05-10T04:40:31.763Z,53.90
2018-05-10T04:41:32.841Z,54.00
2018-05-10T04:42:33.915Z,54.50
2018-05-10T04:43:34.974Z,53.70
2018-05-10T04:44:37.000Z,53.60
2018-05-10T04:45:38.062Z,53.60
2018-05-10T04:46:39.151Z,53.10
2018-05-10T04:47:40.259Z,53.10
2018-05-10T04:48:41.323Z,53.20
2018-05-10T04:49:42.407Z,53.10
2018-05-10T04:50:43.462Z,53.10
2018-05-10T04:51:44.511Z,53.00
2018-05-10T04:52:45.608Z,52.90
2018-05-10T04:53:46.672Z,52.90
2018-05-10T04:54:47.758Z,52.80
2018-05-10T04:55:48.828Z,53.40
2018-05-10T04:56:49.915Z,53.30
2018-05-10T04:57:50.987Z,53.30
2018-05-10T04:58:52.071Z,53.30
2018-05-10T04:59:53.144Z,53.30
2018-05-10T05:00:54.207Z,53.30
2018-05-10T05:01:55.277Z,53.30
2018-05-10T05:02:57.096Z,53.40
2018-05-10T05:05:05.929Z,53.40
2018-05-10T05:06:06.994Z,53.20
2018-05-10T05:07:08.802Z,53.40
2018-05-10T05:08:09.875Z,53.50
2018-05-10T05:09:11.694Z,53.70
2018-05-10T05:10:12.754Z,53.70
2018-05-10T05:11:13.810Z,53.50
2018-05-10T05:12:14.875Z,53.50
2018-05-10T05:13:15.922Z,53.60
2018-05-10T05:15:24.812Z,53.60
2018-05-10T05:16:25.868Z,53.60
2018-05-10T05:17:26.919Z,53.70
2018-05-10T05:18:27.986Z,53.80
2018-05-10T05:19:29.042Z,53.30
2018-05-10T05:20:30.086Z,53.00
2018-05-10T05:21:31.169Z,53.60
2018-05-10T05:22:32.207Z,53.70
2018-05-10T05:23:33.274Z,53.50
2018-05-10T05:24:34.339Z,53.00
2018-05-10T05:25:35.391Z,53.00
2018-05-10T05:26:36.455Z,53.10
2018-05-10T05:27:37.535Z,53.20
2018-05-10T05:28:38.584Z,53.10
2018-05-10T05:29:40.379Z,53.80
2018-05-10T05:30:41.427Z,53.20
2018-05-10T05:31:42.478Z,52.80
2018-05-10T05:32:43.530Z,53.20
2018-05-10T05:33:44.599Z,52.60
2018-05-10T05:34:45.689Z,52.30
2018-05-10T05:35:47.504Z,52.90
2018-05-10T05:36:48.556Z,52.50
2018-05-10T05:37:49.607Z,52.20
2018-05-10T05:38:50.675Z,52.00
2018-05-10T05:39:51.735Z,51.70
2018-05-10T05:40:52.821Z,51.70
2018-05-10T05:41:53.874Z,51.70
2018-05-10T05:42:54.935Z,51.90
2018-05-10T05:43:56.003Z,52.10
2018-05-10T05:44:57.811Z,51.70
2018-05-10T05:45:58.862Z,51.70
2018-05-10T05:46:59.911Z,51.80
2018-05-10T05:48:01.695Z,51.20
2018-05-10T05:49:02.751Z,51.40
2018-05-10T05:50:03.823Z,51.40
2018-05-10T05:51:04.918Z,51.10
2018-05-10T05:52:05.983Z,51.20
2018-05-10T05:53:07.048Z,51.00
2018-05-10T05:54:08.134Z,50.90
2018-05-10T05:55:09.190Z,50.90
2018-05-10T05:56:10.243Z,51.00
2018-05-10T05:57:11.308Z,50.70
2018-05-10T05:58:12.363Z,50.80
2018-05-10T05:59:13.430Z,50.70
2018-05-10T06:00:14.503Z,50.80
2018-05-10T06:01:15.603Z,50.80
2018-05-10T06:02:16.654Z,50.80
2018-05-10T06:03:17.703Z,51.00
2018-05-10T06:04:18.766Z,50.80
2018-05-10T06:05:19.826Z,50.60
2018-05-10T06:06:20.875Z,50.20
2018-05-10T06:07:21.931Z,50.70
2018-05-10T06:08:22.982Z,50.70
2018-05-10T06:09:24.079Z,50.70
2018-05-10T06:10:25.148Z,50.70
2018-05-10T06:11:26.193Z,50.80
2018-05-10T06:12:28.007Z,50.90
2018-05-10T06:13:29.068Z,50.80
2018-05-10T06:14:30.878Z,51.00
2018-05-10T06:15:32.051Z,51.10
2018-05-10T06:16:33.740Z,51.20
2018-05-10T06:17:34.790Z,51.20
2018-05-10T06:18:35.851Z,51.10
2018-05-10T06:19:36.899Z,51.40
2018-05-10T06:20:37.963Z,51.40
2018-05-10T06:21:39.048Z,51.50
2018-05-10T06:22:40.135Z,51.60
2018-05-10T06:23:41.927Z,52.00
2018-05-10T06:24:43.103Z,52.10
2018-05-10T06:25:44.074Z,52.10
2018-05-10T06:26:45.191Z,51.80
2018-05-10T06:27:46.269Z,51.80
2018-05-10T06:28:48.072Z,52.30
2018-05-10T06:29:49.151Z,52.20
2018-05-10T06:30:50.949Z,51.80
2018-05-10T06:31:52.002Z,51.80
2018-05-10T06:32:53.059Z,51.80
2018-05-10T06:33:54.112Z,51.80
2018-05-10T06:34:55.183Z,52.80
2018-05-10T06:35:56.255Z,52.00
2018-05-10T06:36:57.319Z,51.80
2018-05-10T06:37:58.395Z,52.50
2018-05-10T06:38:59.450Z,52.70
2018-05-10T06:40:01.268Z,52.70
2018-05-10T06:41:02.342Z,52.70
2018-05-10T06:42:03.411Z,52.90
2018-05-10T06:43:04.470Z,52.90
2018-05-10T06:44:05.544Z,52.90
2018-05-10T06:45:06.642Z,52.90
2018-05-10T06:46:07.712Z,52.80
2018-05-10T06:47:09.510Z,52.60
2018-05-10T06:48:10.583Z,52.60
2018-05-10T06:49:11.650Z,52.70
2018-05-10T06:50:12.711Z,53.00
2018-05-10T06:51:13.761Z,53.10
2018-05-10T06:52:14.841Z,53.20
2018-05-10T06:53:15.898Z,53.80
2018-05-10T06:54:16.957Z,53.30
2018-05-10T06:55:18.215Z,53.20
2018-05-10T06:56:20.019Z,52.90
2018-05-10T06:57:21.081Z,52.90
2018-05-10T06:58:22.139Z,53.00
2018-05-10T06:59:23.219Z,53.60
2018-05-10T07:00:24.284Z,53.40
2018-05-10T07:01:26.085Z,53.10
2018-05-10T07:02:27.147Z,53.20
2018-05-10T07:03:28.195Z,53.00
2018-05-10T07:04:29.247Z,52.80
2018-05-10T07:05:30.311Z,53.00
2018-05-10T07:06:31.361Z,52.80
2018-05-10T07:07:32.408Z,52.50
2018-05-10T07:08:33.469Z,52.50
2018-05-10T07:09:34.654Z,52.50
2018-05-10T07:10:35.598Z,52.50
2018-05-10T07:11:36.650Z,52.60
2018-05-10T07:12:37.740Z,52.40
2018-05-10T07:13:38.828Z,51.90
2018-05-10T07:14:39.890Z,52.10
2018-05-10T07:15:40.948Z,52.30
2018-05-10T07:16:42.015Z,52.60
2018-05-10T07:17:43.090Z,51.50
2018-05-10T07:18:44.155Z,50.50
2018-05-10T07:19:45.227Z,50.60
2018-05-10T07:20:46.337Z,50.20
2018-05-10T07:21:48.132Z,49.90
2018-05-10T07:22:49.184Z,50.00
2018-05-10T07:23:50.238Z,49.90
2018-05-10T07:24:51.291Z,49.90
2018-05-10T07:25:52.352Z,49.90
2018-05-10T07:26:53.402Z,50.10
2018-05-10T07:27:54.462Z,50.00
2018-05-10T07:28:55.524Z,49.90
2018-05-10T07:29:56.591Z,49.90
2018-05-10T07:30:57.776Z,50.40
2018-05-10T07:31:59.583Z,50.70
2018-05-10T07:33:00.741Z,50.80
2018-05-10T07:34:01.698Z,50.70
2018-05-10T07:35:03.497Z,50.90
2018-05-10T07:36:04.572Z,50.90
2018-05-10T07:37:06.376Z,51.20
2018-05-10T07:38:07.418Z,51.20
2018-05-10T07:39:09.242Z,51.50
2018-05-10T07:40:10.305Z,51.50
2018-05-10T07:41:11.371Z,51.20
2018-05-10T07:42:13.168Z,51.20
2018-05-10T07:43:14.252Z,51.20
2018-05-10T07:44:15.342Z,51.40
2018-05-10T07:45:16.394Z,51.50
2018-05-10T07:46:17.480Z,52.00
2018-05-10T07:47:18.788Z,51.30
2018-05-10T07:48:19.662Z,51.80
2018-05-10T07:49:20.768Z,51.50
2018-05-10T07:50:21.809Z,51.40
2018-05-10T07:51:22.928Z,51.20
2018-05-10T07:52:24.007Z,51.10
2018-05-10T07:53:25.080Z,51.10
2018-05-10T07:54:26.927Z,51.50
2018-05-10T07:55:27.998Z,51.50
2018-05-10T07:56:29.074Z,51.20
2018-05-10T07:57:30.142Z,51.30
2018-05-10T07:58:31.174Z,51.20
2018-05-10T07:59:32.239Z,51.10
2018-05-10T08:00:33.308Z,50.70
2018-05-10T08:01:35.110Z,50.90
2018-05-10T08:02:36.184Z,51.00
2018-05-10T08:03:37.259Z,51.00
2018-05-10T08:04:38.307Z,50.90
2018-05-10T08:05:39.375Z,50.90
2018-05-10T08:06:41.219Z,50.90
2018-05-10T08:07:42.279Z,50.10
2018-05-10T08:08:44.115Z,51.00
2018-05-10T08:09:45.930Z,50.80
2018-05-10T08:10:46.993Z,50.80
2018-05-10T08:11:48.798Z,52.00
2018-05-10T08:12:49.867Z,52.70
2018-05-10T08:13:50.959Z,51.70
2018-05-10T08:14:52.011Z,51.00
2018-05-10T08:15:53.071Z,50.00
2018-05-10T08:16:54.888Z,50.20
2018-05-10T08:17:55.951Z,50.10
2018-05-10T08:18:57.043Z,50.90
2018-05-10T08:19:58.176Z,50.90
2018-05-10T08:20:59.251Z,51.00
2018-05-10T08:22:01.068Z,51.80
2018-05-10T08:23:02.130Z,51.90
2018-05-10T08:24:03.218Z,51.80
2018-05-10T08:25:04.300Z,51.90
2018-05-10T08:26:05.383Z,51.80
2018-05-10T08:27:06.461Z,52.20
2018-05-10T08:28:08.283Z,52.50
2018-05-10T08:29:09.350Z,53.20
2018-05-10T08:30:10.451Z,53.10
2018-05-10T08:31:11.489Z,52.80
2018-05-10T08:32:12.563Z,52.70
2018-05-10T08:33:13.611Z,52.60
2018-05-10T08:34:14.678Z,52.40
2018-05-10T08:35:15.792Z,52.40
2018-05-10T08:36:16.869Z,52.80
2018-05-10T08:37:17.967Z,52.80
2018-05-10T08:38:19.015Z,52.90
2018-05-10T08:39:20.079Z,52.90
2018-05-10T08:40:21.900Z,53.00
2018-05-10T08:41:22.995Z,53.00
2018-05-10T08:42:24.102Z,52.50
2018-05-10T08:43:25.188Z,52.50
2018-05-10T08:44:26.250Z,52.80
2018-05-10T08:45:27.327Z,52.80
2018-05-10T08:46:28.388Z,53.00
2018-05-10T08:47:29.451Z,52.70
2018-05-10T08:48:30.509Z,53.00
2018-05-10T08:49:32.301Z,52.80
2018-05-10T08:50:33.373Z,52.70
2018-05-10T08:51:34.537Z,53.00
2018-05-10T08:52:35.555Z,53.20
2018-05-10T08:53:36.635Z,53.50
2018-05-10T08:54:37.714Z,53.70
2018-05-10T08:55:38.767Z,54.10
2018-05-10T08:56:39.825Z,54.10
2018-05-10T08:57:40.923Z,54.50
2018-05-10T08:58:41.987Z,54.50
2018-05-10T08:59:43.043Z,54.80
2018-05-10T09:00:44.843Z,54.80
2018-05-10T09:01:45.905Z,54.80
2018-05-10T09:02:46.985Z,54.60
2018-05-10T09:03:48.303Z,54.10
2018-05-10T09:04:49.431Z,54.20
2018-05-10T09:05:50.528Z,54.20
2018-05-10T09:06:51.661Z,54.70
2018-05-10T09:07:52.730Z,54.70
2018-05-10T09:08:54.729Z,55.40
2018-05-10T09:09:56.584Z,55.50
2018-05-10T09:10:57.644Z,55.40
2018-05-10T09:11:59.569Z,56.10
2018-05-10T09:13:00.636Z,55.60
2018-05-10T09:14:01.700Z,56.20
2018-05-10T09:15:02.762Z,56.40
2018-05-10T09:16:03.850Z,56.00
2018-05-10T09:17:04.895Z,56.00
2018-05-10T09:18:05.971Z,56.70
2018-05-10T09:19:07.029Z,57.00
2018-05-10T09:20:08.091Z,57.00
2018-05-10T09:21:09.188Z,57.10
2018-05-10T09:22:11.002Z,57.00
2018-05-10T09:23:12.076Z,57.00
2018-05-10T09:24:13.577Z,57.10
2018-05-10T09:25:14.634Z,57.40
2018-05-10T09:26:15.698Z,58.00
2018-05-10T09:27:17.496Z,57.90
2018-05-10T09:28:18.571Z,58.00
2018-05-10T09:29:20.370Z,57.80
2018-05-10T09:30:21.445Z,58.00
2018-05-10T09:31:22.518Z,57.80
2018-05-10T09:32:23.567Z,57.10
2018-05-10T09:33:24.651Z,56.90
2018-05-10T09:34:25.711Z,56.80
2018-05-10T09:35:26.767Z,56.90
2018-05-10T09:36:27.844Z,57.10
2018-05-10T09:37:29.637Z,56.90
2018-05-10T09:38:30.707Z,56.90
2018-05-10T09:39:31.792Z,57.30
2018-05-10T09:40:32.843Z,56.90
2018-05-10T09:41:33.918Z,56.90
2018-05-10T09:42:34.980Z,57.00
2018-05-10T09:43:36.051Z,57.00
2018-05-10T09:44:37.117Z,57.00
2018-05-10T09:45:38.911Z,56.30
2018-05-10T09:46:40.720Z,56.60
2018-05-10T09:47:41.803Z,56.70
2018-05-10T09:48:42.884Z,56.50
2018-05-10T09:49:43.943Z,56.50
2018-05-10T09:50:45.028Z,56.90
2018-05-10T09:51:46.164Z,56.70
2018-05-10T09:52:47.987Z,57.10
2018-05-10T09:53:49.088Z,57.00
2018-05-10T09:54:50.153Z,57.70
2018-05-10T09:55:51.247Z,57.70
2018-05-10T09:56:52.316Z,57.60
2018-05-10T09:57:53.391Z,57.60
2018-05-10T09:58:54.451Z,57.50
2018-05-10T09:59:55.548Z,57.50
2018-05-10T10:00:56.611Z,57.60
2018-05-10T10:01:57.672Z,57.60
2018-05-10T10:02:58.740Z,57.50
2018-05-10T10:03:59.826Z,57.60
2018-05-10T10:05:00.934Z,57.60
2018-05-10T10:06:02.012Z,57.70
2018-05-10T10:07:03.073Z,57.50
2018-05-10T10:08:04.870Z,57.70
2018-05-10T10:09:05.945Z,57.80
2018-05-10T10:10:07.015Z,57.70
2018-05-10T10:11:08.080Z,58.30
2018-05-10T10:12:09.190Z,58.30
2018-05-10T10:13:10.255Z,58.80
2018-05-10T10:14:11.320Z,58.50
2018-05-10T10:15:12.422Z,58.50
2018-05-10T10:16:13.486Z,58.70
2018-05-10T10:17:15.289Z,58.80
2018-05-10T10:18:16.363Z,58.70
2018-05-10T10:19:18.208Z,58.80
2018-05-10T10:20:20.026Z,59.10
2018-05-10T10:21:21.079Z,59.00
2018-05-10T10:22:22.138Z,58.90
2018-05-10T10:23:23.216Z,58.80
2018-05-10T10:24:24.316Z,59.30
2018-05-10T10:25:25.379Z,59.40
2018-05-10T10:26:26.431Z,58.90
2018-05-10T10:27:27.587Z,58.50
2018-05-10T10:28:28.651Z,58.60
2018-05-10T10:29:29.746Z,58.10
2018-05-10T10:30:31.560Z,57.40
2018-05-10T10:31:32.623Z,57.50
2018-05-10T10:32:33.696Z,57.90
2018-05-10T10:33:34.762Z,53.80
2018-05-10T10:34:35.940Z,54.10
2018-05-10T10:35:37.034Z,54.40
2018-05-10T10:36:38.111Z,54.50
2018-05-10T10:37:39.181Z,53.60
2018-05-10T10:38:40.269Z,52.20
2018-05-10T10:39:41.356Z,52.70
2018-05-10T10:40:42.416Z,53.00
2018-05-10T10:41:43.502Z,52.90
2018-05-10T10:42:44.554Z,53.20
2018-05-10T10:43:45.635Z,53.50
2018-05-10T10:44:46.720Z,53.60
2018-05-10T10:45:47.796Z,53.60
2018-05-10T10:46:48.867Z,52.80
2018-05-10T10:47:49.926Z,53.10
2018-05-10T10:48:51.005Z,53.30
2018-05-10T10:49:52.078Z,53.00
2018-05-10T10:50:53.196Z,53.60
2018-05-10T10:51:54.261Z,52.80
2018-05-10T10:52:55.374Z,53.00
2018-05-10T10:53:56.499Z,52.70
2018-05-10T10:54:57.538Z,52.80
2018-05-10T10:55:58.617Z,53.00
2018-05-10T10:57:00.440Z,53.00
2018-05-10T10:58:01.503Z,53.00
2018-05-10T10:59:02.575Z,52.90
2018-05-10T11:00:03.770Z,52.70
2018-05-10T11:01:04.799Z,52.90
2018-05-10T11:02:05.875Z,53.00
2018-05-10T11:03:06.927Z,52.80
2018-05-10T11:04:08.009Z,52.20
2018-05-10T11:05:09.074Z,51.20
2018-05-10T11:06:10.200Z,51.10
2018-05-10T11:07:11.287Z,50.80
2018-05-10T11:08:12.359Z,51.20
2018-05-10T11:09:13.544Z,51.10
2018-05-10T11:10:15.304Z,51.40
2018-05-10T11:11:16.391Z,51.50
2018-05-10T11:12:17.471Z,51.10
2018-05-10T11:13:18.596Z,50.60
2018-05-10T11:14:20.403Z,51.10
2018-05-10T11:15:21.495Z,51.20
2018-05-10T11:16:22.576Z,51.00
2018-05-10T11:17:23.664Z,51.30
2018-05-10T11:18:24.734Z,51.10
2018-05-10T11:19:25.809Z,51.20
2018-05-10T11:20:27.629Z,51.30
2018-05-10T11:21:28.738Z,51.40
2018-05-10T11:22:29.852Z,51.80
2018-05-10T11:23:30.887Z,51.50
2018-05-10T11:24:31.962Z,51.60
2018-05-10T11:25:33.047Z,51.30
2018-05-10T11:26:34.111Z,51.10
2018-05-10T11:27:35.208Z,51.10
2018-05-10T11:28:36.307Z,51.30
2018-05-10T11:29:38.111Z,51.70
2018-05-10T11:30:39.204Z,51.70
2018-05-10T11:31:40.272Z,51.90
2018-05-10T11:32:41.348Z,52.00
2018-05-10T11:33:42.417Z,52.40
2018-05-10T11:34:43.491Z,52.40
2018-05-10T11:35:44.555Z,53.00
2018-05-10T11:36:45.680Z,52.90
2018-05-10T11:37:47.486Z,53.70
2018-05-10T11:38:48.573Z,53.70
2018-05-10T11:39:49.659Z,53.60
2018-05-10T11:40:50.744Z,53.60
2018-05-10T11:41:51.818Z,53.80
2018-05-10T11:42:52.906Z,53.50
2018-05-10T11:43:54.012Z,54.00
2018-05-10T11:44:55.114Z,53.80
2018-05-10T11:45:56.303Z,54.20
2018-05-10T11:46:57.382Z,53.70
2018-05-10T11:47:58.454Z,53.70
2018-05-10T11:48:59.555Z,53.90
2018-05-10T11:50:00.643Z,53.70
2018-05-10T11:51:01.730Z,53.70
2018-05-10T11:52:02.806Z,54.00
2018-05-10T11:53:03.874Z,53.90
2018-05-10T11:54:04.979Z,54.70
2018-05-10T11:55:06.136Z,54.70
2018-05-10T11:56:07.221Z,54.80
2018-05-10T11:57:08.291Z,54.70
2018-05-10T11:58:09.371Z,54.80
2018-05-10T11:59:10.491Z,54.80
2018-05-10T12:00:11.549Z,54.70
2018-05-10T12:01:12.623Z,54.60
2018-05-10T12:02:13.704Z,54.60
2018-05-10T12:03:14.759Z,54.60
2018-05-10T12:04:16.571Z,54.20
2018-05-10T12:05:17.643Z,54.30
2018-05-10T12:06:18.719Z,54.80
2018-05-10T12:07:19.791Z,55.10
2018-05-10T12:08:21.590Z,55.70
2018-05-10T12:09:22.652Z,55.80
2018-05-10T12:10:23.761Z,55.80
2018-05-10T12:11:24.867Z,56.00
2018-05-10T12:12:25.950Z,56.60
2018-05-10T12:13:27.015Z,56.40
2018-05-10T12:14:28.079Z,56.40
2018-05-10T12:15:29.172Z,57.00
2018-05-10T12:16:30.999Z,57.60
2018-05-10T12:17:32.822Z,57.60
2018-05-10T12:18:33.909Z,57.60
2018-05-10T12:19:35.723Z,57.10
2018-05-10T12:20:36.806Z,57.20
2018-05-10T12:21:37.905Z,56.80
2018-05-10T12:22:39.716Z,57.20
2018-05-10T12:23:40.792Z,57.20
2018-05-10T12:24:42.603Z,56.40
2018-05-10T12:25:43.678Z,56.40
2018-05-10T12:26:45.508Z,56.00
2018-05-10T12:27:46.613Z,56.10
2018-05-10T12:28:47.716Z,55.80
2018-05-10T12:29:48.791Z,56.20
2018-05-10T12:30:49.868Z,56.10
2018-05-10T12:31:50.930Z,55.70
2018-05-10T12:32:52.013Z,55.60
2018-05-10T12:33:54.778Z,55.50
2018-05-10T12:34:55.884Z,55.50
2018-05-10T12:35:56.955Z,55.50
2018-05-10T12:36:58.040Z,55.60
2018-05-10T12:37:59.138Z,55.30
2018-05-10T12:39:00.201Z,55.00
2018-05-10T12:40:01.284Z,55.00
2018-05-10T12:41:03.094Z,55.20
2018-05-10T12:42:04.188Z,55.40
2018-05-10T12:43:05.258Z,56.10
2018-05-10T12:44:06.421Z,54.80
2018-05-10T12:45:07.430Z,54.80
2018-05-10T12:46:08.489Z,54.80
2018-05-10T12:47:10.291Z,55.00
2018-05-10T12:48:11.414Z,55.00
2018-05-10T12:49:12.518Z,55.20
2018-05-10T12:50:14.330Z,55.40
2018-05-10T12:51:15.420Z,55.40
2018-05-10T12:52:16.495Z,55.80
2018-05-10T12:53:17.558Z,55.50
2018-05-10T12:54:19.380Z,56.20
2018-05-10T12:55:20.455Z,56.30
2018-05-10T12:56:21.648Z,56.40
2018-05-10T12:57:22.592Z,56.60
2018-05-10T12:58:23.663Z,56.90
2018-05-10T12:59:24.732Z,57.20
2018-05-10T13:00:25.835Z,57.50
2018-05-10T13:01:26.916Z,57.70
2018-05-10T13:02:28.733Z,58.10
2018-05-10T13:03:29.815Z,58.10
2018-05-10T13:04:31.624Z,57.90
2018-05-10T13:05:32.710Z,58.10
2018-05-10T13:06:34.303Z,58.00
2018-05-10T13:07:35.383Z,57.90
2018-05-10T13:08:37.179Z,57.90
2018-05-10T13:09:38.251Z,58.00
2018-05-10T13:10:40.059Z,58.00
2018-05-10T13:11:41.131Z,58.10
2018-05-10T13:12:42.217Z,57.90
2018-05-10T13:13:43.307Z,57.60